createdAt,value
2023-05-03T17:57:05.103Z,44.80
2023-05-03T18:02:09.101Z,44.90
2023-05-03T18:07:12.989Z,46.30
2023-05-03T18:12:18.695Z,47.10
2023-05-03T18:17:22.403Z,47.90
2023-05-03T18:22:27.248Z,48.30
2023-05-03T18:27:33.670Z,48.60
2023-05-03T18:32:37.508Z,48.50
2023-05-03T18:37:41.519Z,48.80
2023-05-03T18:42:47.669Z,49.00
2023-05-03T18:47:51.797Z,49.20
2023-05-03T18:52:55.772Z,49.50
2023-05-03T18:58:02.992Z,49.90
2023-05-03T19:03:08.508Z,50.40
2023-05-03T19:08:12.883Z,50.90
2023-05-03T19:13:19.077Z,51.30
2023-05-03T19:18:23.890Z,51.80
2023-05-03T19:23:28.559Z,52.30
2023-05-03T19:28:34.551Z,53.00
2023-05-03T19:33:38.778Z,52.90
2023-05-03T19:38:42.806Z,53.30
2023-05-03T19:43:49.050Z,53.20
2023-05-03T19:48:53.214Z,53.50
2023-05-03T19:53:57.610Z,53.90
2023-05-03T19:59:03.569Z,54.00
2023-05-03T20:04:07.669Z,54.50
2023-05-03T20:09:12.373Z,54.60
2023-05-03T20:14:18.281Z,55.00
2023-05-03T20:19:22.911Z,55.80
2023-05-03T20:24:27.182Z,55.60
2023-05-03T20:29:33.858Z,55.80
2023-05-03T20:34:39.628Z,56.20
2023-05-03T20:39:43.579Z,56.70
2023-05-03T20:44:51.207Z,56.70
2023-05-03T20:49:55.339Z,57.20
2023-05-03T20:54:59.370Z,57.50
2023-05-03T21:00:06.594Z,57.90
2023-05-03T21:05:12.127Z,58.40
2023-05-03T21:10:16.712Z,58.80
2023-05-03T21:15:22.954Z,59.20
2023-05-03T21:20:26.895Z,59.70
2023-05-03T21:25:31.055Z,60.00
2023-05-03T21:30:37.610Z,60.70
2023-05-03T21:35:41.699Z,61.00
2023-05-03T21:40:46.729Z,61.40
2023-05-03T21:50:58.338Z,62.70
2023-05-03T21:56:02.459Z,63.20
2023-05-03T22:01:09.392Z,63.50
2023-05-03T22:06:13.539Z,64.20
2023-05-03T22:11:17.497Z,64.80
2023-05-03T22:16:23.608Z,65.20
2023-05-03T22:21:27.576Z,65.50
2023-05-03T22:26:31.699Z,66.00
2023-05-03T22:31:37.544Z,66.70
